• Join FlightAware (Why Join?)
  • Login
  • US Flag 
10:57PM EDT


 

Airport Tracker/Info


-or-


 

Live Flight TrackerFlight Track Log ✈ AAL963 ✈ 25-Jul-2013 ✈ KDFW - SBGR / GRU

Flight Track Log - Related Links

Times and Time Zones

All times are in EDT time to prevent confusion due to time zone crossing. See the AAL963 flight status page for this flight to view local times or setup timezone preferences in your user account.

Time Position Orientation Groundspeed Altitude Reporting Facility
EDT Latitude Longitude Course Direction KTS MPH feet Rate Location/Type
09:19PM 32.8660 -97.0540 193° South 192 221 1,600  Level FlightAware
09:19PM 32.8420 -97.0610 194° South 197 227 2,300 1,020 Climbing FlightAware
09:19PM 32.8150 -97.0690 194° South 227 261 2,600 900 Climbing FlightAware
09:20PM 32.7880 -97.0760 192° South 247 284 3,100 1,380 Climbing FlightAware
09:20PM 32.7570 -97.0850 194° South 258 297 3,800 1,800 Climbing FlightAware
09:21PM 32.7230 -97.0940 193° South 262 302 4,800 2,040 Climbing FlightAware
09:21PM 32.6950 -97.1010 192° South 264 304 5,600 1,800 Climbing FlightAware
09:21PM 32.6740 -97.1050 189° South 274 315 6,000 1,680 Climbing FlightAware
09:22PM 32.6490 -97.1030 176° South 274 315 6,700 1,680 Climbing FlightAware
09:22PM 32.6030 -97.0990 176° South 284 327 7,600 1,560 Climbing FlightAware
09:23PM 32.5890 -97.0980 177° South 284 327 7,900 1,620 Climbing FlightAware
09:23PM 32.5490 -97.0940 175° South 291 335 8,700 1,740 Climbing FlightAware
09:24PM 32.5170 -97.0910 175° South 292 336 9,500 1,620 Climbing FlightAware
09:24PM 32.4670 -97.0860 175° South 305 351 10,500 1,260 Climbing FlightAware
09:25PM 32.3870 -97.0790 176° South 341 392 11,400 1,200 Climbing FlightAware
09:26PM 32.3180 -97.0730 176° South 360 414 12,400 1,320 Climbing FlightAware
09:26PM 32.2490 -97.0660 175° South 379 436 13,300 1,740 Climbing FlightAware
09:27PM 32.1710 -97.0430 166° South 375 432 14,900 1,800 Climbing FlightAware
09:28PM 32.1040 -97.0210 164° South 385 443 15,900 1,620 Climbing FlightAware
09:29PM 32.0270 -96.9960 165° South 392 451 17,200 1,620 Climbing FlightAware
09:29PM 31.9890 -96.9837 165° South 399 459 17,700 960 Climbing FlightAware ADS-B
09:29PM 31.9304 -96.9636 164° South 417 480 18,100 900 Climbing FlightAware ADS-B
09:31PM 31.7960 -96.9170 164° South 443 510 19,300 1,080 Climbing FlightAware
09:31PM 31.7639 -96.9059 164° South 447 514 19,700 1,380 Climbing FlightAware ADS-B
09:31PM 31.7029 -96.8853 164° South 454 522 20,400 1,320 Climbing FlightAware ADS-B
09:34PM 31.4138 -96.7903 164° South 472 543 23,500 1,260 Climbing FlightAware ADS-B
09:34PM 31.3479 -96.7679 164° South 478 550 24,000 1,080 Climbing FlightAware ADS-B
09:34PM 31.3113 -96.7546 163° South 480 552 24,400 1,200 Climbing FlightAware ADS-B
09:35PM 31.2975 -96.7485 159° South 481 554 24,500 960 Climbing FlightAware ADS-B
09:36PM 31.1342 -96.6547 154° Southeast 493 567 25,800 960 Climbing FlightAware ADS-B
09:36PM 31.1124 -96.6402 150° Southeast 495 570 26,000 960 Climbing FlightAware ADS-B
09:37PM 31.0248 -96.5268 129° Southeast 502 578 26,900 840 Climbing FlightAware ADS-B
09:38PM 30.9583 -96.4096 122° Southeast 508 585 27,600 780 Climbing FlightAware ADS-B
09:38PM 30.9217 -96.3378 121° Southeast 512 589 28,000 780 Climbing FlightAware ADS-B
09:39PM 30.8845 -96.2652 121° Southeast 515 593 28,400 660 Climbing FlightAware ADS-B
09:39PM 30.8473 -96.1938 121° Southeast 521 600 28,700 600 Climbing FlightAware ADS-B
09:41PM 30.7328 -95.9761 122° Southeast 530 610 29,700 900 Climbing FlightAware ADS-B
09:43PM 30.5765 -95.6810 122° Southeast 519 597 32,000 1,080 Climbing FlightAware ADS-B
09:44PM 30.5381 -95.6087 122° Southeast 515 593 32,500 840 Climbing FlightAware ADS-B
09:44PM 30.4995 -95.5360 122° Southeast 514 592 32,900 480 Climbing FlightAware ADS-B
09:45PM 30.4620 -95.4658 122° Southeast 515 593 33,000 60 Climbing FlightAware ADS-B
09:45PM 30.4239 -95.3942 122° Southeast 515 593 33,000  Level FlightAware ADS-B
09:46PM 30.3855 -95.3224 122° Southeast 515 593 33,000  Level FlightAware ADS-B
09:48PM 30.2287 -95.0307 122° Southeast 513 590 33,000  Level FlightAware ADS-B
09:48PM 30.1908 -94.9605 122° Southeast 513 590 33,000  Level FlightAware ADS-B
09:49PM 30.1138 -94.8182 122° Southeast 514 592 33,000  Level FlightAware ADS-B
09:50PM 30.0757 -94.7479 122° Southeast 515 593 33,000  Level FlightAware ADS-B
09:50PM 30.0367 -94.6761 122° Southeast 515 593 33,000  Level FlightAware ADS-B
09:51PM 29.9982 -94.6053 122° Southeast 517 595 33,000  Level FlightAware ADS-B
09:51PM 29.9597 -94.5347 122° Southeast 516 594 33,000  Level FlightAware ADS-B
09:53PM 29.8434 -94.3225 122° Southeast 516 594 33,000  Level FlightAware ADS-B
09:53PM 29.8045 -94.2515 122° Southeast 515 593 33,000  Level FlightAware ADS-B
09:54PM 29.7657 -94.1812 122° Southeast 512 589 33,000  Level FlightAware ADS-B
09:54PM 29.7277 -94.1121 122° Southeast 511 588 33,000  Level FlightAware ADS-B
09:55PM 29.6702 -94.0254 130° Southeast 511 588 33,000  Level FlightAware ADS-B
09:57PM 29.4356 -93.8241 144° Southeast 505 581 33,000  Level FlightAware ADS-B
09:58PM 29.3518 -93.7530 144° Southeast 503 579 33,000  Level FlightAware ADS-B
09:58PM 29.2784 -93.6903 143° Southeast 503 579 33,000  Level FlightAware ADS-B
09:59PM 29.2212 -93.6414 143° Southeast 501 577 33,000  Level FlightAware ADS-B
09:59PM 29.1634 -93.5923 143° Southeast 500 575 33,000  Level FlightAware ADS-B
10:00PM 29.1067 -93.5443 144° Southeast 500 575 33,000  Level FlightAware ADS-B
10:00PM 29.0484 -93.4948 143° Southeast 500 575 33,000  Level FlightAware ADS-B
10:01PM 28.9916 -93.4469 144° Southeast 500 575 33,000  Level FlightAware ADS-B
10:01PM 28.9344 -93.3988 144° Southeast 500 575 33,000  Level FlightAware ADS-B
10:02PM 28.8761 -93.3498 144° Southeast 499 574 33,000 -120 Level FlightAware ADS-B
10:03PM 28.7725 -93.2608 144° Southeast 499 574 32,900  Descending Houston Center
10:04PM 28.6611 -93.1669 144° Southeast 499 574 33,000  Climbing Houston Center
10:05PM 28.5486 -93.0742 144° Southeast 499 574 32,900  Descending Houston Center
10:06PM 28.4364 -92.9808 144° Southeast 501 577 33,000  Climbing Houston Center
10:07PM 28.3244 -92.8867 143° Southeast 502 578 33,000 -60 Level Houston Center
10:08PM 28.1897 -92.7758 144° Southeast 498 573 32,900  Descending Houston Center
10:09PM 28.0786 -92.6850 144° Southeast 496 571 33,000  Climbing Houston Center
10:10PM 27.9667 -92.5936 144° Southeast 495 570 32,900 -60 Descending Houston Center
10:11PM 27.8561 -92.4997 143° Southeast 497 572 32,900  Level Houston Center
10:13PM 27.7175 -92.3921 143° Southeast  Level FlightAware Approximate
10:20PM 26.9674 -91.7737 144° Southeast  Level FlightAware Approximate
10:21PM 26.8592 -91.6873 145° Southeast  Level FlightAware Approximate
10:22PM 26.7510 -91.6010 145° Southeast  Level FlightAware Approximate
10:23PM 26.6427 -91.5150 145° Southeast  Level FlightAware Approximate
10:24PM 26.5343 -91.4290 145° Southeast  Level FlightAware Approximate
10:25PM 26.4261 -91.3434 145° Southeast  Level FlightAware Approximate
10:26PM 26.3177 -91.2579 145° Southeast  Level FlightAware Approximate
10:27PM 26.2094 -91.1725 145° Southeast  Level FlightAware Approximate
10:28PM 26.1009 -91.0873 145° Southeast  Level FlightAware Approximate
10:29PM 25.9924 -91.0023 145° Southeast  Level FlightAware Approximate
10:30PM 25.8839 -90.9174 145° Southeast  Level FlightAware Approximate
10:31PM 25.7753 -90.8327 145° Southeast  Level FlightAware Approximate
10:32PM 25.6667 -90.7482 145° Southeast  Level FlightAware Approximate
10:33PM 25.5580 -90.6637 145° Southeast  Level FlightAware Approximate
10:34PM 25.4493 -90.5795 145° Southeast  Level FlightAware Approximate
10:35PM 25.3405 -90.4954 145° Southeast  Level FlightAware Approximate
10:36PM 25.2317 -90.4115 145° Southeast  Level FlightAware Approximate
10:37PM 25.1228 -90.3277 145° Southeast  Level FlightAware Approximate
10:38PM 25.0139 -90.2440 145° Southeast  Level FlightAware Approximate
10:39PM 24.9051 -90.1603 145° Southeast  Level FlightAware Approximate
10:40PM 24.7962 -90.0766 145° Southeast  Level FlightAware Approximate
10:41PM 24.6873 -89.9932 145° Southeast  Level FlightAware Approximate
10:42PM 24.5784 -89.9099 145° Southeast  Level FlightAware Approximate
10:43PM 24.4711 -89.8244 146° Southeast  Level FlightAware Approximate
10:44PM 24.3607 -89.7435 146° Southeast  Level FlightAware Approximate
10:45PM 24.2503 -89.6627 146° Southeast  Level FlightAware Approximate
10:46PM 24.1399 -89.5821 146° Southeast  Level FlightAware Approximate
10:47PM 24.0297 -89.5012 145° Southeast  Level FlightAware Approximate
10:48PM 23.9207 -89.4184 145° Southeast  Level FlightAware Approximate
10:49PM 23.8117 -89.3357 145° Southeast  Level FlightAware Approximate
10:50PM 23.7026 -89.2531 145° Southeast  Level FlightAware Approximate
10:50PM 23.4300 -89.0460 145° Southeast 496 571 33,000  Level FlightAware
10:51PM 23.5935 -89.1707 145° Southeast  Level FlightAware Approximate
10:51PM 23.3540 -88.9890 145° Southeast 497 572 33,000  Level FlightAware
10:51PM 23.3060 -88.9530 145° Southeast 497 572 33,000  Level FlightAware
10:52PM 23.2320 -88.8970 145° Southeast 497 572 33,000  Level FlightAware
10:53PM 23.1320 -88.8240 146° Southeast 498 573 33,000  Level FlightAware
10:54PM 23.0520 -88.7630 145° Southeast 498 573 33,000  Level FlightAware
10:54PM 22.9600 -88.6960 146° Southeast 499 574 33,000  Level FlightAware
10:55PM 22.8860 -88.6420 146° Southeast 499 574 33,000  Level FlightAware
10:56PM 22.8010 -88.5790 146° Southeast 498 573 33,000  Level FlightAware
10:56PM 22.7430 -88.5360 146° Southeast 497 572 33,000  Level FlightAware
10:57PM 22.6520 -88.4690 146° Southeast 497 572 33,000  Level FlightAware
10:58PM 22.5770 -88.4070 143° Southeast 494 568 33,000  Level FlightAware
10:58PM 22.5110 -88.3420 138° Southeast 493 567 33,000  Level FlightAware
10:59PM 22.4430 -88.2710 136° Southeast 493 567 33,000  Level FlightAware
11:00PM 22.3920 -88.2180 136° Southeast 493 567 33,000  Level FlightAware
11:01PM 22.3230 -88.1460 136° Southeast 493 567 33,000  Level FlightAware
11:01PM 22.2430 -88.0680 138° Southeast 492 566 33,000  Level FlightAware
11:02PM 22.1760 -87.9980 136° Southeast 492 566 33,000  Level FlightAware
11:03PM 22.0970 -87.9220 138° Southeast 492 566 33,000  Level FlightAware
11:03PM 22.0270 -87.8490 136° Southeast 492 566 33,000  Level FlightAware
11:04PM 21.9770 -87.7970 136° Southeast 492 566 33,000  Level FlightAware
11:05PM 21.9100 -87.7270 136° Southeast 492 566 33,000  Level FlightAware
11:05PM 21.8300 -87.6540 140° Southeast 490 564 33,000  Level FlightAware
11:06PM 21.7520 -87.5760 137° Southeast 491 565 33,000  Level FlightAware
11:07PM 21.6860 -87.5100 137° Southeast 489 563 33,000  Level FlightAware
11:07PM 21.6230 -87.4480 138° Southeast 488 562 33,000  Level FlightAware
11:08PM 21.5470 -87.3730 137° Southeast 488 562 33,000  Level FlightAware
11:09PM 21.4810 -87.3070 137° Southeast 488 562 33,000  Level FlightAware
11:09PM 21.4090 -87.2360 137° Southeast 488 562 33,000  Level FlightAware
11:10PM 21.3400 -87.1680 137° Southeast 488 562 33,000  Level FlightAware
11:11PM 21.2660 -87.0960 138° Southeast 489 563 33,000  Level FlightAware
11:12PM 21.2000 -87.0300 137° Southeast 488 562 33,000  Level FlightAware
11:12PM 21.1440 -86.9760 138° Southeast 487 560 33,000  Level FlightAware
11:13PM 21.0700 -86.9030 137° Southeast 485 558 33,000  Level FlightAware
11:13PM 21.0030 -86.8380 138° Southeast 484 557 33,000  Level FlightAware
11:14PM 20.9420 -86.7780 137° Southeast 483 556 33,000  Level FlightAware
11:15PM 20.8750 -86.7130 138° Southeast 483 556 33,000  Level FlightAware
11:15PM 20.8100 -86.6500 138° Southeast 484 557 33,000  Level FlightAware
11:16PM 20.7390 -86.5810 138° Southeast 483 556 33,000  Level FlightAware
11:17PM 20.6740 -86.5180 138° Southeast 482 555 33,000  Level FlightAware
11:18PM 20.5950 -86.4420 138° Southeast 482 555 33,000  Level FlightAware
11:18PM 20.5370 -86.3860 138° Southeast 482 555 33,000  Level FlightAware
11:19PM 20.4250 -86.2770 138° Southeast 482 555 33,000  Level FlightAware
11:20PM 20.3530 -86.2090 138° Southeast 482 555 33,000  Level FlightAware
11:21PM 20.3020 -86.1580 137° Southeast 482 555 33,000  Level FlightAware
11:21PM 20.2240 -86.0850 139° Southeast 482 555 33,000  Level FlightAware
11:22PM 20.1560 -86.0200 138° Southeast 482 555 33,000  Level FlightAware
11:23PM 20.0910 -85.9580 138° Southeast 483 556 33,000  Level FlightAware
11:23PM 20.0170 -85.8870 138° Southeast 482 555 33,000  Level FlightAware
11:24PM 19.9440 -85.8180 138° Southeast 481 554 33,000  Level FlightAware
11:25PM 19.8780 -85.7550 138° Southeast 480 552 33,000  Level FlightAware
11:26PM 19.8040 -85.6860 139° Southeast 481 554 33,000  Level FlightAware
11:26PM 19.7500 -85.6350 138° Southeast 480 552 33,000  Level FlightAware
11:27PM 19.6330 -85.5250 138° Southeast 479 551 33,000  Level FlightAware
11:28PM 19.5680 -85.4630 138° Southeast 478 550 33,000  Level FlightAware
11:29PM 19.5050 -85.4050 139° Southeast 478 550 33,000  Level FlightAware
11:29PM 19.4330 -85.3380 139° Southeast 476 548 33,000  Level FlightAware
11:30PM 19.3700 -85.2790 139° Southeast 475 547 33,000  Level FlightAware
11:31PM 19.2820 -85.1950 138° Southeast 475 547 33,000  Level FlightAware
11:32PM 19.2320 -85.1480 138° Southeast 475 547 33,000  Level FlightAware
11:32PM 19.1640 -85.0830 138° Southeast 475 547 33,000  Level FlightAware
11:33PM 19.1140 -85.0350 138° Southeast 475 547 33,000  Level FlightAware
11:34PM 19.0640 -84.9880 138° Southeast 475 547 33,000  Level FlightAware
11:34PM 19.0120 -84.9370 137° Southeast 475 547 33,000  Level FlightAware
11:35PM 18.9450 -84.8740 138° Southeast 475 547 33,000  Level FlightAware
11:36PM 18.8950 -84.8260 138° Southeast 475 547 33,000  Level FlightAware
11:36PM 18.8450 -84.7790 138° Southeast 475 547 33,000  Level FlightAware
11:37PM 18.7780 -84.7150 138° Southeast 475 547 33,000  Level FlightAware
11:38PM 18.7280 -84.6680 138° Southeast 475 547 33,000  Level FlightAware
11:38PM 18.6620 -84.6050 138° Southeast 475 547 33,000  Level FlightAware
11:39PM 18.6120 -84.5570 138° Southeast 475 547 33,000  Level FlightAware
11:40PM 18.5450 -84.4940 138° Southeast 475 547 33,000  Level FlightAware
11:42PM 18.4046 -84.3061 125° Southeast  Level FlightAware Approximate
11:43PM 18.3291 -84.1912 125° Southeast  Level FlightAware Approximate
11:44PM 18.2536 -84.0763 125° Southeast  Level FlightAware Approximate
11:45PM 18.1780 -83.9615 125° Southeast  Level FlightAware Approximate
11:46PM 18.1023 -83.8468 125° Southeast  Level FlightAware Approximate
11:47PM 18.0265 -83.7322 125° Southeast  Level FlightAware Approximate
11:48PM 17.9507 -83.6178 125° Southeast  Level FlightAware Approximate
11:49PM 17.8563 -83.5199 135° Southeast  Level FlightAware Approximate
11:50PM 17.7616 -83.4222 136° Southeast  Level FlightAware Approximate
11:51PM 17.6668 -83.3247 136° Southeast  Level FlightAware Approximate
11:52PM 17.5721 -83.2273 136° Southeast  Level FlightAware Approximate
11:53PM 17.4772 -83.1300 136° Southeast  Level FlightAware Approximate
11:54PM 17.3824 -83.0327 136° Southeast  Level FlightAware Approximate
11:55PM 17.2833 -82.9404 139° Southeast  Level FlightAware Approximate
11:56PM 17.1833 -82.8490 139° Southeast  Level FlightAware Approximate
11:57PM 17.0833 -82.7578 139° Southeast  Level FlightAware Approximate
11:58PM 16.9832 -82.6667 139° Southeast  Level FlightAware Approximate
11:59PM 16.8831 -82.5757 139° Southeast  Level FlightAware Approximate
12:00AM 16.7829 -82.4847 139° Southeast  Level FlightAware Approximate
12:01AM 16.6828 -82.3939 139° Southeast  Level FlightAware Approximate
12:02AM 16.5825 -82.3031 139° Southeast  Level FlightAware Approximate
12:03AM 16.4823 -82.2125 139° Southeast  Level FlightAware Approximate
12:04AM 16.3879 -82.1154 134° Southeast  Level FlightAware Approximate
12:05AM 16.2963 -82.0154 134° Southeast  Level FlightAware Approximate
12:06AM 16.2047 -81.9155 134° Southeast  Level FlightAware Approximate
12:07AM 16.1130 -81.8156 134° Southeast  Level FlightAware Approximate
12:08AM 16.0212 -81.7159 134° Southeast  Level FlightAware Approximate
12:09AM 15.9293 -81.6163 134° Southeast  Level FlightAware Approximate
12:10AM 15.8374 -81.5168 134° Southeast  Level FlightAware Approximate
12:11AM 15.7455 -81.4174 134° Southeast  Level FlightAware Approximate
12:12AM 15.6535 -81.3181 134° Southeast  Level FlightAware Approximate
12:13AM 15.5614 -81.2189 134° Southeast  Level FlightAware Approximate
12:14AM 15.4693 -81.1198 134° Southeast  Level FlightAware Approximate
12:15AM 15.3772 -81.0207 134° Southeast  Level FlightAware Approximate
12:16AM 15.2850 -80.9218 134° Southeast  Level FlightAware Approximate
12:17AM 15.1928 -80.8229 134° Southeast  Level FlightAware Approximate
12:18AM 15.1005 -80.7241 134° Southeast  Level FlightAware Approximate
12:19AM 15.0082 -80.6254 134° Southeast  Level FlightAware Approximate
12:20AM 14.9046 -80.5398 142° Southeast  Level FlightAware Approximate
12:21AM 14.7998 -80.4556 142° Southeast  Level FlightAware Approximate
12:22AM 14.6950 -80.3714 142° Southeast  Level FlightAware Approximate
12:23AM 14.5902 -80.2874 142° Southeast  Level FlightAware Approximate
12:24AM 14.4853 -80.2034 142° Southeast  Level FlightAware Approximate
12:25AM 14.3805 -80.1195 142° Southeast  Level FlightAware Approximate
12:26AM 14.2756 -80.0356 142° Southeast  Level FlightAware Approximate
12:27AM 14.1706 -79.9519 142° Southeast  Level FlightAware Approximate
12:28AM 14.0656 -79.8682 142° Southeast  Level FlightAware Approximate
12:29AM 13.9607 -79.7846 142° Southeast  Level FlightAware Approximate
12:30AM 13.8556 -79.7010 142° Southeast  Level FlightAware Approximate
12:31AM 13.7507 -79.6174 142° Southeast  Level FlightAware Approximate
12:32AM 13.6458 -79.5338 142° Southeast  Level FlightAware Approximate
12:33AM 13.5408 -79.4503 142° Southeast  Level FlightAware Approximate
12:34AM 13.4358 -79.3669 142° Southeast  Level FlightAware Approximate
12:35AM 13.3308 -79.2835 142° Southeast  Level FlightAware Approximate
12:36AM 13.2258 -79.2002 142° Southeast  Level FlightAware Approximate
12:37AM 13.1207 -79.1170 142° Southeast  Level FlightAware Approximate
12:38AM 13.0156 -79.0338 142° Southeast  Level FlightAware Approximate
12:39AM 12.9105 -78.9507 142° Southeast  Level FlightAware Approximate
12:40AM 12.8054 -78.8677 142° Southeast  Level FlightAware Approximate
12:41AM 12.7002 -78.7847 142° Southeast  Level FlightAware Approximate
12:42AM 12.5950 -78.7019 142° Southeast  Level FlightAware Approximate
12:43AM 12.4898 -78.6190 142° Southeast  Level FlightAware Approximate
12:44AM 12.3846 -78.5363 142° Southeast  Level FlightAware Approximate
12:45AM 12.2793 -78.4536 142° Southeast  Level FlightAware Approximate
12:46AM 12.1740 -78.3710 143° Southeast  Level FlightAware Approximate
12:47AM 12.0687 -78.2885 143° Southeast  Level FlightAware Approximate
12:48AM 11.9634 -78.2060 143° Southeast  Level FlightAware Approximate
12:49AM 11.8580 -78.1236 143° Southeast  Level FlightAware Approximate
12:50AM 11.7526 -78.0412 143° Southeast  Level FlightAware Approximate
12:51AM 11.6472 -77.9589 143° Southeast  Level FlightAware Approximate
12:52AM 11.5418 -77.8767 143° Southeast  Level FlightAware Approximate
12:53AM 11.4363 -77.7945 143° Southeast  Level FlightAware Approximate
12:54AM 11.3308 -77.7124 143° Southeast  Level FlightAware Approximate
12:55AM 11.2253 -77.6304 143° Southeast  Level FlightAware Approximate
12:56AM 11.1198 -77.5484 143° Southeast  Level FlightAware Approximate
12:57AM 11.0142 -77.4665 143° Southeast  Level FlightAware Approximate
12:58AM 10.9119 -77.3808 137° Southeast  Level FlightAware Approximate
12:59AM 10.8144 -77.2891 137° Southeast  Level FlightAware Approximate
01:00AM 10.7169 -77.1975 137° Southeast  Level FlightAware Approximate
01:01AM 10.6194 -77.1060 137° Southeast  Level FlightAware Approximate
01:02AM 10.5218 -77.0145 137° Southeast  Level FlightAware Approximate
01:03AM 10.4242 -76.9231 137° Southeast  Level FlightAware Approximate
01:04AM 10.3266 -76.8317 137° Southeast  Level FlightAware Approximate
01:05AM 10.2290 -76.7404 137° Southeast  Level FlightAware Approximate
01:06AM 10.1313 -76.6492 137° Southeast  Level FlightAware Approximate
01:07AM 10.0336 -76.5580 137° Southeast  Level FlightAware Approximate
01:08AM 9.9359 -76.4668 137° Southeast  Level FlightAware Approximate
01:09AM 9.8384 -76.3754 137° Southeast  Level FlightAware Approximate
01:10AM 9.7411 -76.2840 137° Southeast  Level FlightAware Approximate
01:11AM 9.6437 -76.1925 137° Southeast  Level FlightAware Approximate
01:12AM 9.5463 -76.1012 137° Southeast  Level FlightAware Approximate
01:13AM 9.4489 -76.0098 137° Southeast  Level FlightAware Approximate
01:14AM 9.3514 -75.9185 137° Southeast  Level FlightAware Approximate
01:15AM 9.2540 -75.8273 137° Southeast  Level FlightAware Approximate
01:16AM 9.1565 -75.7362 137° Southeast  Level FlightAware Approximate
01:17AM 9.0590 -75.6450 137° Southeast  Level FlightAware Approximate
01:18AM 8.9614 -75.5540 137° Southeast  Level FlightAware Approximate
01:19AM 8.8639 -75.4629 137° Southeast  Level FlightAware Approximate
01:20AM 8.7647 -75.3737 139° Southeast  Level FlightAware Approximate
01:21AM 8.6652 -75.2849 139° Southeast  Level FlightAware Approximate
01:22AM 8.5657 -75.1961 139° Southeast  Level FlightAware Approximate
01:23AM 8.4662 -75.1074 139° Southeast  Level FlightAware Approximate
01:24AM 8.3667 -75.0187 139° Southeast  Level FlightAware Approximate
01:25AM 8.2671 -74.9300 139° Southeast  Level FlightAware Approximate
01:26AM 8.1676 -74.8414 139° Southeast  Level FlightAware Approximate
01:27AM 8.0680 -74.7528 139° Southeast  Level FlightAware Approximate
01:28AM 7.9684 -74.6643 139° Southeast  Level FlightAware Approximate
01:29AM 7.8688 -74.5758 139° Southeast  Level FlightAware Approximate
01:30AM 7.7693 -74.4872 138° Southeast  Level FlightAware Approximate
01:31AM 7.6710 -74.3972 138° Southeast  Level FlightAware Approximate
01:32AM 7.5727 -74.3074 138° Southeast  Level FlightAware Approximate
01:33AM 7.4744 -74.2175 138° Southeast  Level FlightAware Approximate
01:34AM 7.3760 -74.1277 138° Southeast  Level FlightAware Approximate
01:35AM 7.2777 -74.0379 138° Southeast  Level FlightAware Approximate
01:36AM 7.1793 -73.9482 138° Southeast  Level FlightAware Approximate
01:36AM 7.1670 -73.3930 138° Southeast 484 557 35,000  Level FlightAware
01:37AM 7.0809 -73.8585 138° Southeast  Level FlightAware Approximate
01:37AM 7.0840 -73.3600 158° South 484 557 35,000  Level FlightAware
01:38AM 6.9790 -73.3200 159° South 487 560 36,000 960 Climbing FlightAware
01:38AM 6.8910 -73.2860 159° South 491 565 36,400 660 Climbing FlightAware
01:39AM 6.7990 -73.2500 159° South 488 562 37,000 420 Climbing FlightAware
01:40AM 6.7130 -73.2160 159° South 488 562 37,000  Level FlightAware
01:41AM 6.6200 -73.1800 159° South 488 562 37,000  Level FlightAware
01:41AM 6.5680 -73.1590 158° South 488 562 37,000  Level FlightAware
01:42AM 6.4830 -73.1250 158° South 488 562 37,000  Level FlightAware
01:42AM 6.4190 -73.0980 157° South 488 562 37,000  Level FlightAware
01:43AM 6.3530 -73.0720 159° South 488 562 37,000  Level FlightAware
01:44AM 6.2450 -73.0280 158° South 488 562 37,000  Level FlightAware
01:45AM 6.1800 -73.0020 158° South 488 562 37,000  Level FlightAware
01:45AM 6.0930 -72.9660 158° South 488 562 37,000  Level FlightAware
01:46AM 6.0290 -72.9400 158° South 488 562 37,000  Level FlightAware
01:47AM 5.9210 -72.8960 158° South 488 562 37,000  Level FlightAware
01:48AM 5.8550 -72.8690 158° South 488 562 37,000  Level FlightAware
01:48AM 5.6400 -72.7990 162° South 480 552 37,000  Level FlightAware
01:49AM 5.5530 -72.7660 159° South 481 554 37,000  Level FlightAware
01:50AM 5.4600 -72.7300 159° South 481 554 37,000  Level FlightAware
01:50AM 5.3860 -72.7010 159° South 482 555 37,000  Level FlightAware
01:51AM 5.3010 -72.6680 159° South 482 555 37,000  Level FlightAware
01:52AM 5.2210 -72.6370 159° South 483 556 37,000  Level FlightAware
01:52AM 5.1510 -72.6090 158° South 484 557 37,000  Level FlightAware
01:53AM 5.0630 -72.5740 158° South 484 557 37,000  Level FlightAware
01:54AM 5.0000 -72.5480 158° South 484 557 37,000  Level FlightAware
01:55AM 4.9190 -72.5150 158° South 484 557 37,000  Level FlightAware
01:55AM 4.8550 -72.4890 158° South 484 557 37,000  Level FlightAware
01:56AM 4.7910 -72.4630 158° South 484 557 37,000  Level FlightAware
01:57AM 4.7070 -72.4290 158° South 484 557 37,000  Level FlightAware
01:57AM 4.6430 -72.4030 158° South 484 557 37,000  Level FlightAware
01:58AM 4.5800 -72.3780 158° South 484 557 37,000  Level FlightAware
01:59AM 4.4930 -72.3430 158° South 484 557 37,000  Level FlightAware
01:59AM 4.4300 -72.3170 158° South 484 557 37,000  Level FlightAware
02:00AM 4.3660 -72.2910 158° South 484 557 37,000  Level FlightAware
02:01AM 4.2570 -72.2470 158° South 484 557 37,000  Level FlightAware
02:01AM 4.1930 -72.2210 158° South 484 557 37,000  Level FlightAware
02:04AM 3.9219 -72.1253 145° Southeast  Level FlightAware Approximate
02:05AM 3.8138 -72.0490 145° Southeast  Level FlightAware Approximate
02:06AM 3.7055 -71.9726 145° Southeast  Level FlightAware Approximate
02:07AM 3.5972 -71.8962 145° Southeast  Level FlightAware Approximate
02:08AM 3.4889 -71.8198 145° Southeast  Level FlightAware Approximate
02:09AM 3.3806 -71.7435 145° Southeast  Level FlightAware Approximate
02:10AM 3.2723 -71.6671 145° Southeast  Level FlightAware Approximate
02:11AM 3.1639 -71.5908 145° Southeast  Level FlightAware Approximate
02:12AM 3.0556 -71.5145 145° Southeast  Level FlightAware Approximate
02:13AM 2.9473 -71.4382 145° Southeast  Level FlightAware Approximate
02:14AM 2.8389 -71.3619 145° Southeast  Level FlightAware Approximate
02:15AM 2.7306 -71.2857 145° Southeast  Level FlightAware Approximate
02:16AM 2.6222 -71.2094 145° Southeast  Level FlightAware Approximate
02:17AM 2.5138 -71.1332 145° Southeast  Level FlightAware Approximate
02:18AM 2.4055 -71.0570 145° Southeast  Level FlightAware Approximate
02:19AM 2.2971 -70.9808 145° Southeast  Level FlightAware Approximate
02:20AM 2.1887 -70.9046 145° Southeast  Level FlightAware Approximate
02:21AM 2.0803 -70.8284 145° Southeast  Level FlightAware Approximate
02:22AM 1.9720 -70.7522 145° Southeast  Level FlightAware Approximate
02:23AM 1.8636 -70.6760 145° Southeast  Level FlightAware Approximate
02:24AM 1.7552 -70.5999 145° Southeast  Level FlightAware Approximate
02:25AM 1.6468 -70.5237 145° Southeast  Level FlightAware Approximate
02:26AM 1.5384 -70.4476 145° Southeast  Level FlightAware Approximate
02:27AM 1.4300 -70.3714 145° Southeast  Level FlightAware Approximate
02:28AM 1.3216 -70.2953 145° Southeast  Level FlightAware Approximate
02:29AM 1.2150 -70.2170 138° Southeast  Level FlightAware Approximate
02:30AM 1.1160 -70.1289 138° Southeast  Level FlightAware Approximate
02:31AM 1.0175 -70.0411 138° Southeast  Level FlightAware Approximate
02:32AM 0.9189 -69.9534 138° Southeast  Level FlightAware Approximate
02:33AM 0.8203 -69.8656 138° Southeast  Level FlightAware Approximate
02:34AM 0.7217 -69.7778 138° Southeast  Level FlightAware Approximate
02:35AM 0.6231 -69.6901 138° Southeast  Level FlightAware Approximate
02:36AM 0.5245 -69.6023 138° Southeast  Level FlightAware Approximate
02:37AM 0.4259 -69.5146 138° Southeast  Level FlightAware Approximate
02:38AM 0.3273 -69.4268 138° Southeast  Level FlightAware Approximate
02:39AM 0.2288 -69.3391 138° Southeast  Level FlightAware Approximate
02:40AM 0.1302 -69.2514 138° Southeast  Level FlightAware Approximate
02:41AM 0.0316 -69.1636 138° Southeast  Level FlightAware Approximate
02:42AM -0.0670 -69.0759 138° Southeast  Level FlightAware Approximate
02:43AM -0.1656 -68.9882 138° Southeast  Level FlightAware Approximate
02:44AM -0.2642 -68.9004 138° Southeast  Level FlightAware Approximate
02:45AM -0.3628 -68.8127 138° Southeast  Level FlightAware Approximate
02:46AM -0.4614 -68.7249 138° Southeast  Level FlightAware Approximate
02:47AM -0.5600 -68.6372 138° Southeast  Level FlightAware Approximate
02:48AM -0.6586 -68.5494 138° Southeast  Level FlightAware Approximate
02:49AM -0.7571 -68.4617 138° Southeast  Level FlightAware Approximate
02:50AM -0.8557 -68.3739 138° Southeast  Level FlightAware Approximate
02:51AM -0.9543 -68.2862 138° Southeast  Level FlightAware Approximate
02:52AM -1.0529 -68.1984 138° Southeast  Level FlightAware Approximate
02:53AM -1.1515 -68.1106 138° Southeast  Level FlightAware Approximate
02:54AM -1.2500 -68.0228 138° Southeast  Level FlightAware Approximate
02:55AM -1.3486 -67.9351 138° Southeast  Level FlightAware Approximate
02:56AM -1.4472 -67.8473 138° Southeast  Level FlightAware Approximate
02:57AM -1.5458 -67.7595 138° Southeast  Level FlightAware Approximate
02:58AM -1.6443 -67.6717 138° Southeast  Level FlightAware Approximate
02:59AM -1.7429 -67.5838 138° Southeast  Level FlightAware Approximate
03:00AM -1.8414 -67.4960 138° Southeast  Level FlightAware Approximate
03:01AM -1.9400 -67.4082 138° Southeast  Level FlightAware Approximate
03:02AM -2.0385 -67.3203 138° Southeast  Level FlightAware Approximate
03:03AM -2.1371 -67.2325 138° Southeast  Level FlightAware Approximate
03:04AM -2.2356 -67.1446 138° Southeast  Level FlightAware Approximate
03:05AM -2.3341 -67.0567 138° Southeast  Level FlightAware Approximate
03:06AM -2.4327 -66.9688 138° Southeast  Level FlightAware Approximate
03:07AM -2.5312 -66.8809 138° Southeast  Level FlightAware Approximate
03:08AM -2.6297 -66.7930 138° Southeast  Level FlightAware Approximate
03:09AM -2.7282 -66.7051 138° Southeast  Level FlightAware Approximate
03:10AM -2.8267 -66.6171 138° Southeast  Level FlightAware Approximate
03:11AM -2.9252 -66.5292 138° Southeast  Level FlightAware Approximate
03:12AM -3.0237 -66.4412 138° Southeast  Level FlightAware Approximate
03:13AM -3.1222 -66.3532 138° Southeast  Level FlightAware Approximate
03:14AM -3.2206 -66.2652 138° Southeast  Level FlightAware Approximate
03:15AM -3.3191 -66.1771 138° Southeast  Level FlightAware Approximate
03:16AM -3.4176 -66.0891 138° Southeast  Level FlightAware Approximate
03:17AM -3.5160 -66.0011 138° Southeast  Level FlightAware Approximate
03:18AM -3.6145 -65.9130 138° Southeast  Level FlightAware Approximate
03:19AM -3.7129 -65.8249 138° Southeast  Level FlightAware Approximate
03:20AM -3.8113 -65.7367 138° Southeast  Level FlightAware Approximate
03:21AM -3.9097 -65.6486 138° Southeast  Level FlightAware Approximate
03:22AM -4.0081 -65.5604 138° Southeast  Level FlightAware Approximate
03:23AM -4.1065 -65.4723 138° Southeast  Level FlightAware Approximate
03:24AM -4.2049 -65.3841 138° Southeast  Level FlightAware Approximate
03:25AM -4.3033 -65.2958 138° Southeast  Level FlightAware Approximate
03:26AM -4.4017 -65.2076 138° Southeast  Level FlightAware Approximate
03:27AM -4.5000 -65.1193 138° Southeast  Level FlightAware Approximate
03:28AM -4.5984 -65.0310 138° Southeast  Level FlightAware Approximate
03:29AM -4.6967 -64.9427 138° Southeast  Level FlightAware Approximate
03:30AM -4.7950 -64.8544 138° Southeast  Level FlightAware Approximate
03:31AM -4.8934 -64.7660 138° Southeast  Level FlightAware Approximate
03:32AM -4.9917 -64.6776 138° Southeast  Level FlightAware Approximate
03:33AM -5.0899 -64.5892 138° Southeast  Level FlightAware Approximate
03:34AM -5.1882 -64.5007 138° Southeast  Level FlightAware Approximate
03:35AM -5.2865 -64.4122 138° Southeast  Level FlightAware Approximate
03:36AM -5.3847 -64.3238 138° Southeast  Level FlightAware Approximate
03:37AM -5.4830 -64.2352 138° Southeast  Level FlightAware Approximate
03:38AM -5.5812 -64.1467 138° Southeast  Level FlightAware Approximate
03:39AM -5.6794 -64.0581 138° Southeast  Level FlightAware Approximate
03:40AM -5.7776 -63.9695 138° Southeast  Level FlightAware Approximate
03:41AM -5.8758 -63.8808 138° Southeast  Level FlightAware Approximate
03:42AM -5.9740 -63.7921 138° Southeast  Level FlightAware Approximate
03:43AM -6.0721 -63.7034 138° Southeast  Level FlightAware Approximate
03:44AM -6.1703 -63.6147 138° Southeast  Level FlightAware Approximate
03:45AM -6.2684 -63.5259 138° Southeast  Level FlightAware Approximate
03:46AM -6.3665 -63.4371 138° Southeast  Level FlightAware Approximate
03:47AM -6.4646 -63.3482 138° Southeast  Level FlightAware Approximate
03:48AM -6.5627 -63.2593 138° Southeast  Level FlightAware Approximate
03:49AM -6.6608 -63.1704 138° Southeast  Level FlightAware Approximate
03:50AM -6.7588 -63.0815 138° Southeast  Level FlightAware Approximate
03:51AM -6.8569 -62.9925 138° Southeast  Level FlightAware Approximate
03:52AM -6.9549 -62.9034 138° Southeast  Level FlightAware Approximate
03:53AM -7.0529 -62.8144 138° Southeast  Level FlightAware Approximate
03:54AM -7.1509 -62.7253 138° Southeast  Level FlightAware Approximate
03:55AM -7.2488 -62.6361 138° Southeast  Level FlightAware Approximate
03:56AM -7.3468 -62.5470 138° Southeast  Level FlightAware Approximate
03:57AM -7.4447 -62.4577 138° Southeast  Level FlightAware Approximate
03:58AM -7.5426 -62.3685 138° Southeast  Level FlightAware Approximate
03:59AM -7.6405 -62.2792 138° Southeast  Level FlightAware Approximate
04:00AM -7.7384 -62.1898 138° Southeast  Level FlightAware Approximate
04:01AM -7.8363 -62.1005 138° Southeast  Level FlightAware Approximate
04:02AM -7.9341 -62.0110 138° Southeast  Level FlightAware Approximate
04:03AM -8.0319 -61.9216 138° Southeast  Level FlightAware Approximate
04:04AM -8.1297 -61.8321 138° Southeast  Level FlightAware Approximate
04:05AM -8.2275 -61.7425 138° Southeast  Level FlightAware Approximate
04:06AM -8.3253 -61.6529 138° Southeast  Level FlightAware Approximate
04:07AM -8.4230 -61.5633 138° Southeast  Level FlightAware Approximate
04:08AM -8.5207 -61.4736 138° Southeast  Level FlightAware Approximate
04:09AM -8.6184 -61.3839 138° Southeast  Level FlightAware Approximate
04:10AM -8.7161 -61.2941 138° Southeast  Level FlightAware Approximate
04:11AM -8.8138 -61.2042 138° Southeast  Level FlightAware Approximate
04:12AM -8.9114 -61.1144 138° Southeast  Level FlightAware Approximate
04:13AM -9.0090 -61.0244 138° Southeast  Level FlightAware Approximate
04:14AM -9.1066 -60.9345 138° Southeast  Level FlightAware Approximate
04:15AM -9.2042 -60.8445 138° Southeast  Level FlightAware Approximate
04:16AM -9.3018 -60.7544 138° Southeast  Level FlightAware Approximate
04:17AM -9.3993 -60.6643 138° Southeast  Level FlightAware Approximate
04:18AM -9.4968 -60.5741 138° Southeast  Level FlightAware Approximate
04:19AM -9.5943 -60.4839 138° Southeast  Level FlightAware Approximate
04:20AM -9.6917 -60.3936 138° Southeast  Level FlightAware Approximate
04:21AM -9.7892 -60.3033 138° Southeast  Level FlightAware Approximate
04:22AM -9.8866 -60.2129 138° Southeast  Level FlightAware Approximate
04:23AM -9.9840 -60.1225 138° Southeast  Level FlightAware Approximate
04:24AM -10.0813 -60.0320 138° Southeast  Level FlightAware Approximate
04:25AM -10.1787 -59.9414 138° Southeast  Level FlightAware Approximate
04:26AM -10.2760 -59.8508 138° Southeast  Level FlightAware Approximate
04:27AM -10.3731 -59.7604 137° Southeast  Level FlightAware Approximate
04:28AM -10.4702 -59.6698 137° Southeast  Level FlightAware Approximate
04:29AM -10.5673 -59.5792 137° Southeast  Level FlightAware Approximate
04:30AM -10.6643 -59.4885 137° Southeast  Level FlightAware Approximate
04:31AM -10.7613 -59.3978 137° Southeast  Level FlightAware Approximate
04:32AM -10.8583 -59.3070 137° Southeast  Level FlightAware Approximate
04:33AM -10.9553 -59.2162 137° Southeast  Level FlightAware Approximate
04:34AM -11.0522 -59.1253 137° Southeast  Level FlightAware Approximate
04:35AM -11.1491 -59.0344 137° Southeast  Level FlightAware Approximate
04:36AM -11.2460 -58.9433 137° Southeast  Level FlightAware Approximate
04:37AM -11.3428 -58.8522 137° Southeast  Level FlightAware Approximate
04:38AM -11.4396 -58.7611 137° Southeast  Level FlightAware Approximate
04:39AM -11.5365 -58.6699 137° Southeast  Level FlightAware Approximate
04:40AM -11.6332 -58.5786 137° Southeast  Level FlightAware Approximate
04:41AM -11.7300 -58.4873 137° Southeast  Level FlightAware Approximate
04:42AM -11.8267 -58.3959 137° Southeast  Level FlightAware Approximate
04:43AM -11.9234 -58.3045 137° Southeast  Level FlightAware Approximate
04:44AM -12.0200 -58.2129 137° Southeast  Level FlightAware Approximate
04:45AM -12.1166 -58.1213 137° Southeast  Level FlightAware Approximate
04:46AM -12.2132 -58.0297 137° Southeast  Level FlightAware Approximate
04:47AM -12.3098 -57.9380 137° Southeast  Level FlightAware Approximate
04:48AM -12.4063 -57.8462 137° Southeast  Level FlightAware Approximate
04:49AM -12.5028 -57.7543 137° Southeast  Level FlightAware Approximate
04:50AM -12.5993 -57.6624 137° Southeast  Level FlightAware Approximate
04:51AM -12.6957 -57.5704 137° Southeast  Level FlightAware Approximate
04:52AM -12.7921 -57.4783 137° Southeast  Level FlightAware Approximate
04:53AM -12.8885 -57.3862 137° Southeast  Level FlightAware Approximate
04:54AM -12.9848 -57.2940 137° Southeast  Level FlightAware Approximate
04:55AM -13.0811 -57.2017 137° Southeast  Level FlightAware Approximate
04:56AM -13.1774 -57.1094 137° Southeast  Level FlightAware Approximate
04:57AM -13.2737 -57.0169 137° Southeast  Level FlightAware Approximate
04:58AM -13.3699 -56.9244 137° Southeast  Level FlightAware Approximate
04:59AM -13.4661 -56.8319 137° Southeast  Level FlightAware Approximate
05:00AM -13.5622 -56.7392 137° Southeast  Level FlightAware Approximate
05:01AM -13.6583 -56.6465 137° Southeast  Level FlightAware Approximate
05:02AM -13.7544 -56.5537 137° Southeast  Level FlightAware Approximate
05:03AM -13.8504 -56.4608 137° Southeast  Level FlightAware Approximate
05:04AM -13.9464 -56.3679 137° Southeast  Level FlightAware Approximate
05:05AM -14.0424 -56.2749 137° Southeast  Level FlightAware Approximate
05:06AM -14.1383 -56.1818 137° Southeast  Level FlightAware Approximate
05:07AM -14.2342 -56.0886 137° Southeast  Level FlightAware Approximate
05:08AM -14.3301 -55.9953 137° Southeast  Level FlightAware Approximate
05:09AM -14.4259 -55.9020 137° Southeast  Level FlightAware Approximate
05:10AM -14.5217 -55.8086 137° Southeast  Level FlightAware Approximate
05:11AM -14.6174 -55.7151 137° Southeast  Level FlightAware Approximate
05:12AM -14.7131 -55.6215 137° Southeast  Level FlightAware Approximate
05:13AM -14.8088 -55.5278 137° Southeast  Level FlightAware Approximate
05:14AM -14.9045 -55.4341 137° Southeast  Level FlightAware Approximate
05:15AM -15.0001 -55.3402 137° Southeast  Level FlightAware Approximate
05:16AM -15.0956 -55.2463 137° Southeast  Level FlightAware Approximate
05:17AM -15.1911 -55.1523 136° Southeast  Level FlightAware Approximate
05:18AM -15.2866 -55.0582 136° Southeast  Level FlightAware Approximate
05:19AM -15.3821 -54.9641 136° Southeast  Level FlightAware Approximate
05:20AM -15.4775 -54.8698 136° Southeast  Level FlightAware Approximate
05:21AM -15.5728 -54.7755 136° Southeast  Level FlightAware Approximate
05:22AM -15.6681 -54.6810 136° Southeast  Level FlightAware Approximate
05:23AM -15.7634 -54.5865 136° Southeast  Level FlightAware Approximate
05:24AM -15.8587 -54.4919 136° Southeast  Level FlightAware Approximate
05:25AM -15.9539 -54.3972 136° Southeast  Level FlightAware Approximate
05:26AM -16.0490 -54.3024 136° Southeast  Level FlightAware Approximate
05:27AM -16.1441 -54.2075 136° Southeast  Level FlightAware Approximate
05:28AM -16.2392 -54.1126 136° Southeast  Level FlightAware Approximate
05:29AM -16.3343 -54.0175 136° Southeast  Level FlightAware Approximate
05:30AM -16.4293 -53.9224 136° Southeast  Level FlightAware Approximate
05:31AM -16.5242 -53.8271 136° Southeast  Level FlightAware Approximate
05:32AM -16.6191 -53.7318 136° Southeast  Level FlightAware Approximate
05:33AM -16.7140 -53.6363 136° Southeast  Level FlightAware Approximate
05:34AM -16.8088 -53.5408 136° Southeast  Level FlightAware Approximate
05:35AM -16.9036 -53.4452 136° Southeast  Level FlightAware Approximate
05:36AM -16.9983 -53.3495 136° Southeast  Level FlightAware Approximate
05:37AM -17.0930 -53.2536 136° Southeast  Level FlightAware Approximate
05:38AM -17.1876 -53.1577 136° Southeast  Level FlightAware Approximate
05:39AM -17.2822 -53.0617 136° Southeast  Level FlightAware Approximate
05:40AM -17.3768 -52.9656 136° Southeast  Level FlightAware Approximate
05:41AM -17.4713 -52.8694 136° Southeast  Level FlightAware Approximate
05:42AM -17.5657 -52.7731 136° Southeast  Level FlightAware Approximate
05:43AM -17.6602 -52.6767 136° Southeast  Level FlightAware Approximate
05:44AM -17.7545 -52.5802 136° Southeast  Level FlightAware Approximate
05:45AM -17.8488 -52.4835 136° Southeast  Level FlightAware Approximate
05:46AM -17.9431 -52.3868 136° Southeast  Level FlightAware Approximate
05:47AM -18.0373 -52.2900 136° Southeast  Level FlightAware Approximate
05:48AM -18.1315 -52.1931 136° Southeast  Level FlightAware Approximate
05:49AM -18.2256 -52.0961 136° Southeast  Level FlightAware Approximate
05:50AM -18.3197 -51.9989 136° Southeast  Level FlightAware Approximate
05:51AM -18.4137 -51.9017 136° Southeast  Level FlightAware Approximate
05:51AM -19.0630 -50.6020 136° Southeast 534 615 39,000  Level FlightAware
05:52AM -18.5077 -51.8043 136° Southeast  Level FlightAware Approximate
05:52AM -19.1300 -50.5290 134° Southeast 535 616 39,000  Level FlightAware
05:52AM -19.1960 -50.4560 134° Southeast 535 616 39,000  Level FlightAware
05:53AM -19.2550 -50.3920 134° Southeast 536 617 39,000  Level FlightAware
05:54AM -19.3260 -50.3140 134° Southeast 536 617 39,000  Level FlightAware
05:54AM -19.3930 -50.2400 134° Southeast 537 618 39,000  Level FlightAware
05:55AM -19.4730 -50.1530 134° Southeast 538 619 39,000  Level FlightAware
05:56AM -19.5400 -50.0780 133° Southeast 539 620 39,000  Level FlightAware
05:56AM -19.6170 -49.9940 134° Southeast 541 623 39,000  Level FlightAware
05:57AM -19.6860 -49.9180 134° Southeast 542 624 39,000  Level FlightAware
05:58AM -19.7680 -49.8290 134° Southeast 543 625 39,000  Level FlightAware
05:58AM -19.8380 -49.7530 134° Southeast 544 626 39,000  Level FlightAware
05:59AM -19.9150 -49.6690 134° Southeast 545 627 39,000  Level FlightAware
06:00AM -19.9820 -49.5950 134° Southeast 545 627 39,000  Level FlightAware
06:01AM -20.0620 -49.5070 134° Southeast 545 627 39,000  Level FlightAware
06:01AM -20.1310 -49.4310 134° Southeast 546 628 39,000  Level FlightAware
06:02AM -20.1960 -49.3590 134° Southeast 546 628 39,000  Level FlightAware
06:03AM -20.2670 -49.2810 134° Southeast 546 628 39,000  Level FlightAware
06:03AM -20.3350 -49.2050 134° Southeast 546 628 39,000  Level FlightAware
06:04AM -20.4060 -49.1270 134° Southeast 545 627 39,000  Level FlightAware
06:05AM -20.4770 -49.0480 134° Southeast 545 627 39,000  Level FlightAware
06:05AM -20.5470 -48.9710 134° Southeast 545 627 39,000  Level FlightAware
06:06AM -20.6200 -48.8900 134° Southeast 546 628 39,000  Level FlightAware
06:07AM -20.6960 -48.8050 134° Southeast 545 627 39,000  Level FlightAware
06:07AM -20.7690 -48.7240 134° Southeast 543 625 39,000  Level FlightAware
06:08AM -20.8430 -48.6400 133° Southeast 543 625 39,000  Level FlightAware
06:09AM -20.9120 -48.5630 134° Southeast 543 625 39,000  Level FlightAware
06:09AM -20.9740 -48.4930 133° Southeast 542 624 39,000  Level FlightAware
06:10AM -21.0490 -48.4220 139° Southeast 532 612 39,000  Level FlightAware
06:11AM -21.1330 -48.3480 141° Southeast 532 612 39,000  Level FlightAware
06:11AM -21.1990 -48.2930 142° Southeast 530 610 39,000  Level FlightAware
06:12AM -21.2850 -48.2210 142° Southeast 530 610 39,000  Level FlightAware
06:13AM -21.3620 -48.1550 141° Southeast 529 609 39,000 -120 Level FlightAware
06:13AM -21.4410 -48.0860 141° Southeast 524 603 38,900 -660 Descending FlightAware
06:14AM -21.5240 -48.0150 141° Southeast 523 602 38,100 -1,200 Descending FlightAware
06:15AM -21.6000 -47.9490 141° Southeast 527 606 37,300 -960 Descending FlightAware
06:15AM -21.6830 -47.8770 141° Southeast 517 595 36,800 -1,560 Descending FlightAware
06:16AM -21.7550 -47.8150 141° Southeast 517 595 35,200 -2,280 Descending FlightAware
06:17AM -21.8370 -47.7440 141° Southeast 504 580 33,700 -2,340 Descending FlightAware
06:18AM -21.9090 -47.6810 141° Southeast 499 574 32,000 -1,980 Descending FlightAware
06:18AM -21.9820 -47.6180 141° Southeast 477 549 31,000 -1,860 Descending FlightAware
06:19AM -22.0570 -47.5520 141° Southeast 468 539 29,400 -2,100 Descending FlightAware
06:20AM -22.1280 -47.4900 141° Southeast 459 528 28,000 -1,860 Descending FlightAware
06:20AM -22.1960 -47.4310 141° Southeast 452 520 26,800 -1,740 Descending FlightAware
06:21AM -22.2610 -47.3740 141° Southeast 444 511 25,700 -1,620 Descending FlightAware
06:22AM -22.3220 -47.3210 141° Southeast 437 503 24,700 -1,500 Descending FlightAware
06:22AM -22.3870 -47.2650 141° Southeast 427 491 23,700 -1,560 Descending FlightAware
06:23AM -22.4530 -47.2060 140° Southeast 416 479 22,500 -1,680 Descending FlightAware
06:24AM -22.5120 -47.1550 141° Southeast 408 470 21,400 -1,740 Descending FlightAware
06:24AM -22.5690 -47.1070 142° Southeast 395 455 20,200 -1,800 Descending FlightAware
06:25AM -22.6460 -47.0680 155° Southeast 378 435 18,900 -1,440 Descending FlightAware
06:26AM -22.7040 -47.0440 159° South 357 411 18,300 -1,140 Descending FlightAware
06:27AM -22.7720 -47.0160 159° South 330 380 17,400 -1,500 Descending FlightAware
06:27AM -22.8340 -46.9900 159° South 321 369 16,100 -1,740 Descending FlightAware
06:28AM -22.8880 -46.9670 159° South 307 353 15,000 -1,800 Descending FlightAware
06:29AM -22.9460 -46.9430 159° South 297 342 13,600 -1,860 Descending FlightAware
06:29AM -22.9960 -46.9220 159° South 282 325 12,400 -1,440 Descending FlightAware
06:30AM -23.0430 -46.9020 159° South 269 310 11,700 -1,140 Descending FlightAware
06:31AM -23.0940 -46.8800 158° South 265 305 10,800 -1,200 Descending FlightAware
06:31AM -23.1390 -46.8610 159° South 255 293 10,100 -1,080 Descending FlightAware
06:32AM -23.1580 -46.8530 159° South 237 273 9,800 -900 Descending FlightAware
06:32AM -23.1830 -46.8430 160° South 237 273 9,500 -840 Descending FlightAware
06:33AM -23.2120 -46.8300 158° South 236 272 9,100 -840 Descending FlightAware
06:33AM -23.2440 -46.8170 160° South 229 264 8,700 -840 Descending FlightAware
06:34AM -23.2710 -46.8050 158° South 220 253 8,300 -840 Descending FlightAware
06:34AM -23.2940 -46.7960 160° South 208 239 8,000 -720 Descending FlightAware
06:35AM -23.3190 -46.7850 158° South 196 226 7,700 -660 Descending FlightAware
06:35AM -23.3430 -46.7750 159° South 192 221 7,400 -660 Descending FlightAware
06:35AM -23.3660 -46.7650 158° South 186 214 7,100 -720 Descending FlightAware
06:36AM -23.3770 -46.7580 150° Southeast 182 209 6,900 -780 Descending FlightAware
06:36AM -23.3880 -46.7480 140° Southeast 184 212 6,700 -600 Descending FlightAware
06:36AM -23.3990 -46.7380 140° Southeast 187 215 6,600 -660 Descending FlightAware
06:37AM -23.4180 -46.7200 139° Southeast 180 207 6,200 -660 Descending FlightAware
06:37AM -23.4340 -46.7050 139° Southeast 173 199 6,000 -600 Descending FlightAware
06:38AM -23.4500 -46.6870 134° Southeast 177 204 5,700 -600 Descending FlightAware
06:38AM -23.4540 -46.6770 114° Southeast 177 204 5,600 -780 Descending FlightAware
06:38AM -23.4590 -46.6670 119° Southeast 179 206 5,400 -1,020 Descending FlightAware
06:39AM -23.4690 -46.6430 114° Southeast 181 208 4,900 -960 Descending FlightAware
06:39AM -23.4710 -46.6050 93° East 194 223 4,300 -1,020 Descending FlightAware
06:40AM -23.4630 -46.5780 72° East 186 214 3,700 -1,140 Descending FlightAware
06:40AM -23.4570 -46.5560 73° East 178 205 3,300 -900 Descending FlightAware
06:41AM -23.4510 -46.5310 75° East 150 173 2,900 -900 Descending FlightAware
06:41AM -23.4470 -46.5160 74° East 149 171 2,600 -840 Descending FlightAware
06:41AM -23.4420 -46.4990 72° East 147 169 2,300 -720 Descending FlightAware
06:42AM -23.4360 -46.4750 75° East 120 138 -3,960 Descending FlightAware
06:43AM -23.4320 -46.4610 73° East 72 83  Level FlightAware